sensor_id;sensor_type;location;lat;lon;timestamp;temperature;humidity
9450;DHT22;4763;48.370;10.874;2023-05-10T00:01:25;14.30;99.90
9450;DHT22;4763;48.370;10.874;2023-05-10T00:04:13;14.40;99.90
9450;DHT22;4763;48.370;10.874;2023-05-10T00:07:00;14.40;99.90
9450;DHT22;4763;48.370;10.874;2023-05-10T00:09:48;14.40;99.90
9450;DHT22;4763;48.370;10.874;2023-05-10T00:12:35;14.40;99.90
9450;DHT22;4763;48.370;10.874;2023-05-10T00:15:22;14.40;99.90
9450;DHT22;4763;48.370;10.874;2023-05-10T00:18:09;14.40;99.90
9450;DHT22;4763;48.370;10.874;2023-05-10T00:20:56;14.40;99.90
9450;DHT22;4763;48.370;10.874;2023-05-10T00:23:43;14.40;99.90
9450;DHT22;4763;48.370;10.874;2023-05-10T00:26:32;14.30;99.90
9450;DHT22;4763;48.370;10.874;2023-05-10T00:29:19;14.30;99.90
9450;DHT22;4763;48.370;10.874;2023-05-10T00:32:06;14.20;99.90
9450;DHT22;4763;48.370;10.874;2023-05-10T00:34:53;14.20;99.90
9450;DHT22;4763;48.370;10.874;2023-05-10T00:37:40;14.20;99.90
9450;DHT22;4763;48.370;10.874;2023-05-10T00:40:28;14.20;99.90
9450;DHT22;4763;48.370;10.874;2023-05-10T00:43:17;14.20;99.90
9450;DHT22;4763;48.370;10.874;2023-05-10T00:46:04;14.10;99.90
9450;DHT22;4763;48.370;10.874;2023-05-10T00:48:52;14.10;99.90
9450;DHT22;4763;48.370;10.874;2023-05-10T00:51:39;14.10;99.90
9450;DHT22;4763;48.370;10.874;2023-05-10T00:54:28;14.10;99.90
9450;DHT22;4763;48.370;10.874;2023-05-10T00:57:15;14.00;99.90
9450;DHT22;4763;48.370;10.874;2023-05-10T01:00:05;14.10;99.90
9450;DHT22;4763;48.370;10.874;2023-05-10T01:02:53;14.10;99.90
9450;DHT22;4763;48.370;10.874;2023-05-10T01:05:40;14.10;99.90
9450;DHT22;4763;48.370;10.874;2023-05-10T01:08:28;14.10;99.90
9450;DHT22;4763;48.370;10.874;2023-05-10T01:11:15;14.00;99.90
9450;DHT22;4763;48.370;10.874;2023-05-10T01:14:02;14.00;99.90
9450;DHT22;4763;48.370;10.874;2023-05-10T01:16:52;14.00;99.90
9450;DHT22;4763;48.370;10.874;2023-05-10T01:19:40;14.00;99.90
9450;DHT22;4763;48.370;10.874;2023-05-10T01:22:50;14.00;99.90
9450;DHT22;4763;48.370;10.874;2023-05-10T01:26:14;14.00;99.90
9450;DHT22;4763;48.370;10.874;2023-05-10T01:29:23;14.00;99.90
9450;DHT22;4763;48.370;10.874;2023-05-10T01:32:26;13.90;99.90
9450;DHT22;4763;48.370;10.874;2023-05-10T01:35:18;13.90;99.90
9450;DHT22;4763;48.370;10.874;2023-05-10T01:38:18;13.90;99.90
9450;DHT22;4763;48.370;10.874;2023-05-10T01:41:13;13.90;99.90
9450;DHT22;4763;48.370;10.874;2023-05-10T01:44:06;13.80;99.90
9450;DHT22;4763;48.370;10.874;2023-05-10T01:47:03;13.80;99.90
9450;DHT22;4763;48.370;10.874;2023-05-10T01:49:54;13.80;99.90
9450;DHT22;4763;48.370;10.874;2023-05-10T01:52:42;13.80;99.90
9450;DHT22;4763;48.370;10.874;2023-05-10T01:55:35;13.80;99.90
9450;DHT22;4763;48.370;10.874;2023-05-10T01:58:27;13.70;99.90
9450;DHT22;4763;48.370;10.874;2023-05-10T02:01:15;13.70;99.90
9450;DHT22;4763;48.370;10.874;2023-05-10T02:04:03;13.70;99.90
9450;DHT22;4763;48.370;10.874;2023-05-10T02:06:53;13.60;99.90
9450;DHT22;4763;48.370;10.874;2023-05-10T02:09:44;13.60;99.90
9450;DHT22;4763;48.370;10.874;2023-05-10T02:12:35;13.60;99.90
9450;DHT22;4763;48.370;10.874;2023-05-10T02:15:23;13.60;99.90
9450;DHT22;4763;48.370;10.874;2023-05-10T02:18:11;13.60;99.90
9450;DHT22;4763;48.370;10.874;2023-05-10T02:21:00;13.60;99.90
9450;DHT22;4763;48.370;10.874;2023-05-10T02:23:50;13.60;99.90
9450;DHT22;4763;48.370;10.874;2023-05-10T02:26:38;13.60;99.90
9450;DHT22;4763;48.370;10.874;2023-05-10T02:29:27;13.50;99.90
9450;DHT22;4763;48.370;10.874;2023-05-10T02:32:15;13.60;99.90
9450;DHT22;4763;48.370;10.874;2023-05-10T02:35:04;13.60;99.90
9450;DHT22;4763;48.370;10.874;2023-05-10T02:37:52;13.50;99.90
9450;DHT22;4763;48.370;10.874;2023-05-10T02:40:41;13.50;99.90
9450;DHT22;4763;48.370;10.874;2023-05-10T02:43:30;13.50;99.90
9450;DHT22;4763;48.370;10.874;2023-05-10T02:46:18;13.50;99.90
9450;DHT22;4763;48.370;10.874;2023-05-10T02:49:06;13.40;99.90
9450;DHT22;4763;48.370;10.874;2023-05-10T02:51:57;13.40;99.90
9450;DHT22;4763;48.370;10.874;2023-05-10T02:54:49;13.40;99.90
9450;DHT22;4763;48.370;10.874;2023-05-10T02:57:41;13.40;99.90
9450;DHT22;4763;48.370;10.874;2023-05-10T03:00:29;13.40;99.90
9450;DHT22;4763;48.370;10.874;2023-05-10T03:03:16;13.40;99.90
9450;DHT22;4763;48.370;10.874;2023-05-10T03:06:03;13.40;99.90
9450;DHT22;4763;48.370;10.874;2023-05-10T03:08:50;13.40;99.90
9450;DHT22;4763;48.370;10.874;2023-05-10T03:11:47;13.40;99.90
9450;DHT22;4763;48.370;10.874;2023-05-10T03:14:48;13.40;99.90
9450;DHT22;4763;48.370;10.874;2023-05-10T03:17:47;13.40;99.90
9450;DHT22;4763;48.370;10.874;2023-05-10T03:20:38;13.30;99.90
9450;DHT22;4763;48.370;10.874;2023-05-10T03:23:32;13.30;99.90
9450;DHT22;4763;48.370;10.874;2023-05-10T03:26:24;13.30;99.90
9450;DHT22;4763;48.370;10.874;2023-05-10T03:29:13;13.30;99.90
9450;DHT22;4763;48.370;10.874;2023-05-10T03:32:02;13.20;99.90
9450;DHT22;4763;48.370;10.874;2023-05-10T03:34:49;13.30;99.90
9450;DHT22;4763;48.370;10.874;2023-05-10T03:37:36;13.20;99.90
9450;DHT22;4763;48.370;10.874;2023-05-10T03:40:23;13.20;99.90
9450;DHT22;4763;48.370;10.874;2023-05-10T03:43:11;13.20;99.90
9450;DHT22;4763;48.370;10.874;2023-05-10T03:45:58;13.20;99.90
9450;DHT22;4763;48.370;10.874;2023-05-10T03:48:46;13.20;99.90
9450;DHT22;4763;48.370;10.874;2023-05-10T03:51:33;13.20;99.90
9450;DHT22;4763;48.370;10.874;2023-05-10T03:54:20;13.20;99.90
9450;DHT22;4763;48.370;10.874;2023-05-10T03:57:07;13.10;99.90
9450;DHT22;4763;48.370;10.874;2023-05-10T03:59:55;13.10;99.90
9450;DHT22;4763;48.370;10.874;2023-05-10T04:02:42;13.00;99.90
9450;DHT22;4763;48.370;10.874;2023-05-10T04:05:30;12.90;99.90
9450;DHT22;4763;48.370;10.874;2023-05-10T04:08:17;12.90;99.90
9450;DHT22;4763;48.370;10.874;2023-05-10T04:11:05;12.80;99.90
9450;DHT22;4763;48.370;10.874;2023-05-10T04:13:53;12.80;99.90
9450;DHT22;4763;48.370;10.874;2023-05-10T04:16:40;12.80;99.90
9450;DHT22;4763;48.370;10.874;2023-05-10T04:19:29;12.80;99.90
9450;DHT22;4763;48.370;10.874;2023-05-10T04:22:17;12.90;99.90
9450;DHT22;4763;48.370;10.874;2023-05-10T04:25:06;12.90;99.90
9450;DHT22;4763;48.370;10.874;2023-05-10T04:27:53;12.80;99.90
9450;DHT22;4763;48.370;10.874;2023-05-10T04:30:40;12.90;99.90
9450;DHT22;4763;48.370;10.874;2023-05-10T04:33:27;12.90;99.90
9450;DHT22;4763;48.370;10.874;2023-05-10T04:36:14;12.90;99.90
9450;DHT22;4763;48.370;10.874;2023-05-10T04:39:03;12.90;99.90
9450;DHT22;4763;48.370;10.874;2023-05-10T04:41:50;12.90;99.90
9450;DHT22;4763;48.370;10.874;2023-05-10T04:44:37;13.00;99.90
9450;DHT22;4763;48.370;10.874;2023-05-10T04:47:24;12.90;99.90
9450;DHT22;4763;48.370;10.874;2023-05-10T04:50:11;13.00;99.90
9450;DHT22;4763;48.370;10.874;2023-05-10T04:52:59;12.90;99.90
9450;DHT22;4763;48.370;10.874;2023-05-10T04:55:47;12.90;99.90
9450;DHT22;4763;48.370;10.874;2023-05-10T04:58:34;12.90;99.90
9450;DHT22;4763;48.370;10.874;2023-05-10T05:01:21;12.90;99.90
9450;DHT22;4763;48.370;10.874;2023-05-10T05:04:08;12.90;99.90
9450;DHT22;4763;48.370;10.874;2023-05-10T05:06:55;12.90;99.90
9450;DHT22;4763;48.370;10.874;2023-05-10T05:09:42;12.90;99.90
9450;DHT22;4763;48.370;10.874;2023-05-10T05:12:31;12.90;99.90
9450;DHT22;4763;48.370;10.874;2023-05-10T05:15:18;13.00;99.90
9450;DHT22;4763;48.370;10.874;2023-05-10T05:18:05;13.00;99.90
9450;DHT22;4763;48.370;10.874;2023-05-10T05:20:52;13.00;99.90
9450;DHT22;4763;48.370;10.874;2023-05-10T05:23:39;13.10;99.90
9450;DHT22;4763;48.370;10.874;2023-05-10T05:26:26;13.10;99.90
9450;DHT22;4763;48.370;10.874;2023-05-10T05:29:14;13.10;99.90
9450;DHT22;4763;48.370;10.874;2023-05-10T05:32:01;13.20;99.90
9450;DHT22;4763;48.370;10.874;2023-05-10T05:34:49;13.30;99.90
9450;DHT22;4763;48.370;10.874;2023-05-10T05:37:36;13.30;99.90
9450;DHT22;4763;48.370;10.874;2023-05-10T05:40:23;13.30;99.90
9450;DHT22;4763;48.370;10.874;2023-05-10T05:43:10;13.30;99.90
9450;DHT22;4763;48.370;10.874;2023-05-10T05:45:59;13.30;99.90
9450;DHT22;4763;48.370;10.874;2023-05-10T05:48:46;13.30;99.90
9450;DHT22;4763;48.370;10.874;2023-05-10T05:51:33;13.30;99.90
9450;DHT22;4763;48.370;10.874;2023-05-10T05:54:21;13.30;99.90
9450;DHT22;4763;48.370;10.874;2023-05-10T05:57:08;13.30;99.90
9450;DHT22;4763;48.370;10.874;2023-05-10T05:59:55;13.40;99.90
9450;DHT22;4763;48.370;10.874;2023-05-10T06:02:44;13.40;99.90
9450;DHT22;4763;48.370;10.874;2023-05-10T06:05:31;13.40;99.90
9450;DHT22;4763;48.370;10.874;2023-05-10T06:08:18;13.50;99.90
9450;DHT22;4763;48.370;10.874;2023-05-10T06:11:06;13.50;99.90
9450;DHT22;4763;48.370;10.874;2023-05-10T06:13:53;13.60;99.90
9450;DHT22;4763;48.370;10.874;2023-05-10T06:16:40;13.60;99.90
9450;DHT22;4763;48.370;10.874;2023-05-10T06:19:28;13.60;99.90
9450;DHT22;4763;48.370;10.874;2023-05-10T06:22:15;13.70;99.90
9450;DHT22;4763;48.370;10.874;2023-05-10T06:25:02;13.70;99.90
9450;DHT22;4763;48.370;10.874;2023-05-10T06:27:49;13.70;99.90
9450;DHT22;4763;48.370;10.874;2023-05-10T06:30:41;13.70;99.90
9450;DHT22;4763;48.370;10.874;2023-05-10T06:33:29;13.70;99.90
9450;DHT22;4763;48.370;10.874;2023-05-10T06:36:17;13.80;99.90
9450;DHT22;4763;48.370;10.874;2023-05-10T06:39:04;13.80;99.90
9450;DHT22;4763;48.370;10.874;2023-05-10T06:41:51;13.90;99.90
9450;DHT22;4763;48.370;10.874;2023-05-10T06:44:38;13.90;99.90
9450;DHT22;4763;48.370;10.874;2023-05-10T06:47:25;13.90;99.90
9450;DHT22;4763;48.370;10.874;2023-05-10T06:50:12;14.00;99.90
9450;DHT22;4763;48.370;10.874;2023-05-10T06:53:01;14.10;99.90
9450;DHT22;4763;48.370;10.874;2023-05-10T06:55:49;14.10;99.90
9450;DHT22;4763;48.370;10.874;2023-05-10T06:58:36;14.20;99.90
9450;DHT22;4763;48.370;10.874;2023-05-10T07:01:23;14.30;99.90
9450;DHT22;4763;48.370;10.874;2023-05-10T07:04:10;14.20;99.90
9450;DHT22;4763;48.370;10.874;2023-05-10T07:06:58;14.20;99.90
9450;DHT22;4763;48.370;10.874;2023-05-10T07:09:47;14.40;99.90
9450;DHT22;4763;48.370;10.874;2023-05-10T07:12:35;14.50;99.90
9450;DHT22;4763;48.370;10.874;2023-05-10T07:15:22;14.60;99.90
9450;DHT22;4763;48.370;10.874;2023-05-10T07:18:09;14.60;99.90
9450;DHT22;4763;48.370;10.874;2023-05-10T07:20:57;14.80;99.90
9450;DHT22;4763;48.370;10.874;2023-05-10T07:23:44;15.00;99.90
9450;DHT22;4763;48.370;10.874;2023-05-10T07:26:32;15.30;99.90
9450;DHT22;4763;48.370;10.874;2023-05-10T07:29:19;15.50;99.90
9450;DHT22;4763;48.370;10.874;2023-05-10T07:32:07;15.50;99.90
9450;DHT22;4763;48.370;10.874;2023-05-10T07:34:54;15.30;99.90
9450;DHT22;4763;48.370;10.874;2023-05-10T07:37:41;15.40;99.90
9450;DHT22;4763;48.370;10.874;2023-05-10T07:40:29;15.50;99.90
9450;DHT22;4763;48.370;10.874;2023-05-10T07:43:17;15.50;99.90
9450;DHT22;4763;48.370;10.874;2023-05-10T07:46:04;15.80;99.90
9450;DHT22;4763;48.370;10.874;2023-05-10T07:48:51;15.80;99.90
9450;DHT22;4763;48.370;10.874;2023-05-10T07:51:38;15.70;99.90
9450;DHT22;4763;48.370;10.874;2023-05-10T07:54:25;15.90;99.90
9450;DHT22;4763;48.370;10.874;2023-05-10T07:57:12;15.70;99.90
9450;DHT22;4763;48.370;10.874;2023-05-10T08:00:05;15.60;99.90
9450;DHT22;4763;48.370;10.874;2023-05-10T08:02:52;15.90;99.90
9450;DHT22;4763;48.370;10.874;2023-05-10T08:05:39;16.00;99.90
9450;DHT22;4763;48.370;10.874;2023-05-10T08:08:26;16.10;99.90
9450;DHT22;4763;48.370;10.874;2023-05-10T08:11:13;16.10;99.90
9450;DHT22;4763;48.370;10.874;2023-05-10T08:14:00;16.20;99.90
9450;DHT22;4763;48.370;10.874;2023-05-10T08:16:49;16.10;99.90
9450;DHT22;4763;48.370;10.874;2023-05-10T08:19:36;16.40;99.90
9450;DHT22;4763;48.370;10.874;2023-05-10T08:22:23;16.40;99.90
9450;DHT22;4763;48.370;10.874;2023-05-10T08:25:10;16.20;99.90
9450;DHT22;4763;48.370;10.874;2023-05-10T08:27:57;16.30;99.90
9450;DHT22;4763;48.370;10.874;2023-05-10T08:30:44;16.20;99.90
9450;DHT22;4763;48.370;10.874;2023-05-10T08:33:32;16.20;99.90
9450;DHT22;4763;48.370;10.874;2023-05-10T08:36:19;16.20;99.90
9450;DHT22;4763;48.370;10.874;2023-05-10T08:39:09;16.20;99.90
9450;DHT22;4763;48.370;10.874;2023-05-10T08:42:02;16.10;99.90
9450;DHT22;4763;48.370;10.874;2023-05-10T08:44:51;16.10;99.90
9450;DHT22;4763;48.370;10.874;2023-05-10T08:47:39;16.10;99.90
9450;DHT22;4763;48.370;10.874;2023-05-10T08:50:29;16.10;99.90
9450;DHT22;4763;48.370;10.874;2023-05-10T08:53:17;15.90;99.90
9450;DHT22;4763;48.370;10.874;2023-05-10T08:56:06;15.90;99.90
9450;DHT22;4763;48.370;10.874;2023-05-10T08:58:53;16.10;99.90
9450;DHT22;4763;48.370;10.874;2023-05-10T09:01:42;16.20;99.90
9450;DHT22;4763;48.370;10.874;2023-05-10T09:04:29;16.20;99.90
9450;DHT22;4763;48.370;10.874;2023-05-10T09:07:18;16.20;99.90
9450;DHT22;4763;48.370;10.874;2023-05-10T09:10:07;16.00;99.90
9450;DHT22;4763;48.370;10.874;2023-05-10T09:12:56;15.90;99.90
9450;DHT22;4763;48.370;10.874;2023-05-10T09:15:44;15.90;99.90
9450;DHT22;4763;48.370;10.874;2023-05-10T09:18:31;15.90;99.90
9450;DHT22;4763;48.370;10.874;2023-05-10T09:21:19;15.80;99.90
9450;DHT22;4763;48.370;10.874;2023-05-10T09:24:08;15.80;99.90
9450;DHT22;4763;48.370;10.874;2023-05-10T09:26:57;15.90;99.90
9450;DHT22;4763;48.370;10.874;2023-05-10T09:29:44;16.40;99.90
9450;DHT22;4763;48.370;10.874;2023-05-10T09:32:38;16.80;99.90
9450;DHT22;4763;48.370;10.874;2023-05-10T09:35:28;16.80;99.90
9450;DHT22;4763;48.370;10.874;2023-05-10T09:38:17;16.60;99.90
9450;DHT22;4763;48.370;10.874;2023-05-10T09:41:15;16.20;99.90
9450;DHT22;4763;48.370;10.874;2023-05-10T09:44:03;15.80;99.90
9450;DHT22;4763;48.370;10.874;2023-05-10T09:46:50;15.40;99.90
9450;DHT22;4763;48.370;10.874;2023-05-10T09:49:38;15.50;99.90
9450;DHT22;4763;48.370;10.874;2023-05-10T09:52:25;15.50;99.90
9450;DHT22;4763;48.370;10.874;2023-05-10T09:55:13;15.40;99.90
9450;DHT22;4763;48.370;10.874;2023-05-10T09:58:01;15.40;99.90
9450;DHT22;4763;48.370;10.874;2023-05-10T10:00:50;15.40;99.90
9450;DHT22;4763;48.370;10.874;2023-05-10T10:03:41;15.50;99.90
9450;DHT22;4763;48.370;10.874;2023-05-10T10:06:29;15.60;99.90
9450;DHT22;4763;48.370;10.874;2023-05-10T10:09:16;15.60;99.90
9450;DHT22;4763;48.370;10.874;2023-05-10T10:12:04;15.50;99.90
9450;DHT22;4763;48.370;10.874;2023-05-10T10:14:53;15.40;99.90
9450;DHT22;4763;48.370;10.874;2023-05-10T10:17:43;15.20;99.90
9450;DHT22;4763;48.370;10.874;2023-05-10T10:20:30;15.40;99.90
9450;DHT22;4763;48.370;10.874;2023-05-10T10:23:17;15.50;99.90
9450;DHT22;4763;48.370;10.874;2023-05-10T10:26:04;15.80;99.90
9450;DHT22;4763;48.370;10.874;2023-05-10T10:29:00;16.00;99.90
9450;DHT22;4763;48.370;10.874;2023-05-10T10:31:55;16.30;99.90
9450;DHT22;4763;48.370;10.874;2023-05-10T10:34:44;16.60;99.90
9450;DHT22;4763;48.370;10.874;2023-05-10T10:37:45;16.70;99.90
9450;DHT22;4763;48.370;10.874;2023-05-10T10:40:33;16.90;99.90
9450;DHT22;4763;48.370;10.874;2023-05-10T10:43:22;17.20;99.90
9450;DHT22;4763;48.370;10.874;2023-05-10T10:46:14;17.40;99.90
9450;DHT22;4763;48.370;10.874;2023-05-10T10:49:10;17.20;99.90
9450;DHT22;4763;48.370;10.874;2023-05-10T10:52:20;17.30;99.90
9450;DHT22;4763;48.370;10.874;2023-05-10T10:55:09;17.70;99.90
9450;DHT22;4763;48.370;10.874;2023-05-10T10:57:56;17.70;99.90
9450;DHT22;4763;48.370;10.874;2023-05-10T11:00:47;17.50;99.90
9450;DHT22;4763;48.370;10.874;2023-05-10T11:03:34;17.60;99.90
9450;DHT22;4763;48.370;10.874;2023-05-10T11:06:30;17.40;99.90
9450;DHT22;4763;48.370;10.874;2023-05-10T11:09:18;17.30;99.90
9450;DHT22;4763;48.370;10.874;2023-05-10T11:12:08;17.40;99.90
9450;DHT22;4763;48.370;10.874;2023-05-10T11:14:57;17.50;99.90
9450;DHT22;4763;48.370;10.874;2023-05-10T11:17:44;17.30;99.90
9450;DHT22;4763;48.370;10.874;2023-05-10T11:20:39;17.30;99.90
9450;DHT22;4763;48.370;10.874;2023-05-10T11:23:31;17.40;99.90
9450;DHT22;4763;48.370;10.874;2023-05-10T11:26:18;17.50;99.90
9450;DHT22;4763;48.370;10.874;2023-05-10T11:29:08;17.30;99.90
9450;DHT22;4763;48.370;10.874;2023-05-10T11:31:57;17.40;99.90
9450;DHT22;4763;48.370;10.874;2023-05-10T11:34:47;17.30;99.90
9450;DHT22;4763;48.370;10.874;2023-05-10T11:37:34;17.00;99.90
9450;DHT22;4763;48.370;10.874;2023-05-10T11:40:23;17.20;99.90
9450;DHT22;4763;48.370;10.874;2023-05-10T11:43:10;17.20;99.90
9450;DHT22;4763;48.370;10.874;2023-05-10T11:45:58;17.00;99.90
9450;DHT22;4763;48.370;10.874;2023-05-10T11:48:47;16.90;99.90
9450;DHT22;4763;48.370;10.874;2023-05-10T11:51:36;16.90;99.90
9450;DHT22;4763;48.370;10.874;2023-05-10T11:54:24;16.90;99.90
9450;DHT22;4763;48.370;10.874;2023-05-10T11:57:13;16.80;99.90
9450;DHT22;4763;48.370;10.874;2023-05-10T12:00:00;16.90;99.90
9450;DHT22;4763;48.370;10.874;2023-05-10T12:02:49;17.00;99.90
9450;DHT22;4763;48.370;10.874;2023-05-10T12:05:37;17.00;99.90
9450;DHT22;4763;48.370;10.874;2023-05-10T12:08:26;17.10;99.90
9450;DHT22;4763;48.370;10.874;2023-05-10T12:11:13;16.90;99.90
9450;DHT22;4763;48.370;10.874;2023-05-10T12:14:04;16.80;99.90
9450;DHT22;4763;48.370;10.874;2023-05-10T12:16:52;16.70;99.90
9450;DHT22;4763;48.370;10.874;2023-05-10T12:19:39;16.60;99.90
9450;DHT22;4763;48.370;10.874;2023-05-10T12:22:26;16.60;99.90
9450;DHT22;4763;48.370;10.874;2023-05-10T12:25:13;16.50;99.90
9450;DHT22;4763;48.370;10.874;2023-05-10T12:28:03;16.70;99.90
9450;DHT22;4763;48.370;10.874;2023-05-10T12:30:53;16.70;99.90
9450;DHT22;4763;48.370;10.874;2023-05-10T12:33:41;16.80;99.90
9450;DHT22;4763;48.370;10.874;2023-05-10T12:36:28;16.90;99.90
9450;DHT22;4763;48.370;10.874;2023-05-10T12:39:17;16.90;99.90
9450;DHT22;4763;48.370;10.874;2023-05-10T12:42:04;17.10;99.90
9450;DHT22;4763;48.370;10.874;2023-05-10T12:44:55;17.10;99.90
9450;DHT22;4763;48.370;10.874;2023-05-10T12:47:43;16.90;99.90
9450;DHT22;4763;48.370;10.874;2023-05-10T12:50:30;16.80;99.90
9450;DHT22;4763;48.370;10.874;2023-05-10T12:53:17;16.80;99.90
9450;DHT22;4763;48.370;10.874;2023-05-10T12:56:05;16.60;99.90
9450;DHT22;4763;48.370;10.874;2023-05-10T12:58:52;16.50;99.90
9450;DHT22;4763;48.370;10.874;2023-05-10T13:01:39;16.50;99.90
9450;DHT22;4763;48.370;10.874;2023-05-10T13:04:27;16.60;99.90
9450;DHT22;4763;48.370;10.874;2023-05-10T13:07:15;16.50;99.90
9450;DHT22;4763;48.370;10.874;2023-05-10T13:10:02;16.50;99.90
9450;DHT22;4763;48.370;10.874;2023-05-10T13:12:49;16.20;99.90
9450;DHT22;4763;48.370;10.874;2023-05-10T13:15:36;15.80;99.90
9450;DHT22;4763;48.370;10.874;2023-05-10T13:18:23;15.70;99.90
9450;DHT22;4763;48.370;10.874;2023-05-10T13:21:13;15.60;99.90
9450;DHT22;4763;48.370;10.874;2023-05-10T13:24:00;15.40;99.90
9450;DHT22;4763;48.370;10.874;2023-05-10T13:26:47;15.30;99.90
9450;DHT22;4763;48.370;10.874;2023-05-10T13:29:35;15.20;99.90
9450;DHT22;4763;48.370;10.874;2023-05-10T13:32:22;15.20;99.90
9450;DHT22;4763;48.370;10.874;2023-05-10T13:35:09;15.30;99.90
9450;DHT22;4763;48.370;10.874;2023-05-10T13:37:58;15.60;99.90
9450;DHT22;4763;48.370;10.874;2023-05-10T13:40:45;15.50;99.90
9450;DHT22;4763;48.370;10.874;2023-05-10T13:43:32;15.40;99.90
9450;DHT22;4763;48.370;10.874;2023-05-10T13:46:19;15.60;99.90
9450;DHT22;4763;48.370;10.874;2023-05-10T13:49:06;15.70;99.90
9450;DHT22;4763;48.370;10.874;2023-05-10T13:51:53;15.70;99.90
9450;DHT22;4763;48.370;10.874;2023-05-10T13:54:41;15.50;99.90
9450;DHT22;4763;48.370;10.874;2023-05-10T13:57:28;15.20;99.90
9450;DHT22;4763;48.370;10.874;2023-05-10T14:00:16;15.00;99.90
9450;DHT22;4763;48.370;10.874;2023-05-10T14:03:03;14.80;99.90
9450;DHT22;4763;48.370;10.874;2023-05-10T14:05:52;14.40;99.90
9450;DHT22;4763;48.370;10.874;2023-05-10T14:08:39;14.00;99.90
9450;DHT22;4763;48.370;10.874;2023-05-10T14:11:27;13.70;99.90
9450;DHT22;4763;48.370;10.874;2023-05-10T14:14:14;13.50;99.90
9450;DHT22;4763;48.370;10.874;2023-05-10T14:17:01;13.40;99.90
9450;DHT22;4763;48.370;10.874;2023-05-10T14:19:48;13.40;99.90
9450;DHT22;4763;48.370;10.874;2023-05-10T14:22:35;13.40;99.90
9450;DHT22;4763;48.370;10.874;2023-05-10T14:25:23;13.30;99.90
9450;DHT22;4763;48.370;10.874;2023-05-10T14:28:12;13.20;99.90
9450;DHT22;4763;48.370;10.874;2023-05-10T14:30:59;13.20;99.90
9450;DHT22;4763;48.370;10.874;2023-05-10T14:33:46;13.20;99.90
9450;DHT22;4763;48.370;10.874;2023-05-10T14:36:33;13.20;99.90
9450;DHT22;4763;48.370;10.874;2023-05-10T14:39:20;13.20;99.90
9450;DHT22;4763;48.370;10.874;2023-05-10T14:42:08;13.10;99.90
9450;DHT22;4763;48.370;10.874;2023-05-10T14:44:57;13.10;99.90
9450;DHT22;4763;48.370;10.874;2023-05-10T14:47:44;13.10;99.90
9450;DHT22;4763;48.370;10.874;2023-05-10T14:50:31;13.20;99.90
9450;DHT22;4763;48.370;10.874;2023-05-10T14:53:18;13.10;99.90
9450;DHT22;4763;48.370;10.874;2023-05-10T14:56:05;13.00;99.90
9450;DHT22;4763;48.370;10.874;2023-05-10T14:58:52;13.00;99.90
9450;DHT22;4763;48.370;10.874;2023-05-10T15:01:41;13.10;99.90
9450;DHT22;4763;48.370;10.874;2023-05-10T15:04:28;13.10;99.90
9450;DHT22;4763;48.370;10.874;2023-05-10T15:07:15;13.00;99.90
9450;DHT22;4763;48.370;10.874;2023-05-10T15:10:05;13.00;99.90
9450;DHT22;4763;48.370;10.874;2023-05-10T15:12:52;13.20;99.90
9450;DHT22;4763;48.370;10.874;2023-05-10T15:15:39;13.10;99.90
9450;DHT22;4763;48.370;10.874;2023-05-10T15:18:27;13.20;99.90
9450;DHT22;4763;48.370;10.874;2023-05-10T15:21:14;13.20;99.90
9450;DHT22;4763;48.370;10.874;2023-05-10T15:24:01;13.10;99.90
9450;DHT22;4763;48.370;10.874;2023-05-10T15:26:48;13.10;99.90
9450;DHT22;4763;48.370;10.874;2023-05-10T15:29:35;13.00;99.90
9450;DHT22;4763;48.370;10.874;2023-05-10T15:32:22;12.80;99.90
9450;DHT22;4763;48.370;10.874;2023-05-10T15:35:11;12.80;99.90
9450;DHT22;4763;48.370;10.874;2023-05-10T15:37:58;12.90;99.90
9450;DHT22;4763;48.370;10.874;2023-05-10T15:40:45;12.80;99.90
9450;DHT22;4763;48.370;10.874;2023-05-10T15:43:32;12.80;99.90
9450;DHT22;4763;48.370;10.874;2023-05-10T15:46:19;12.70;99.90
9450;DHT22;4763;48.370;10.874;2023-05-10T15:49:06;12.70;99.90
9450;DHT22;4763;48.370;10.874;2023-05-10T15:51:54;12.70;99.90
9450;DHT22;4763;48.370;10.874;2023-05-10T15:54:41;12.60;99.90
9450;DHT22;4763;48.370;10.874;2023-05-10T15:57:29;12.70;99.90
9450;DHT22;4763;48.370;10.874;2023-05-10T16:00:16;12.60;99.90
9450;DHT22;4763;48.370;10.874;2023-05-10T16:03:03;12.60;99.90
9450;DHT22;4763;48.370;10.874;2023-05-10T16:05:51;12.60;99.90
9450;DHT22;4763;48.370;10.874;2023-05-10T16:08:39;12.60;99.90
9450;DHT22;4763;48.370;10.874;2023-05-10T16:11:26;12.60;99.90
9450;DHT22;4763;48.370;10.874;2023-05-10T16:14:13;12.60;99.90
9450;DHT22;4763;48.370;10.874;2023-05-10T16:17:00;12.50;99.90
9450;DHT22;4763;48.370;10.874;2023-05-10T16:19:48;12.50;99.90
9450;DHT22;4763;48.370;10.874;2023-05-10T16:22:36;12.50;99.90
9450;DHT22;4763;48.370;10.874;2023-05-10T16:25:24;12.50;99.90
9450;DHT22;4763;48.370;10.874;2023-05-10T16:28:11;12.50;99.90
9450;DHT22;4763;48.370;10.874;2023-05-10T16:30:58;12.40;99.90
9450;DHT22;4763;48.370;10.874;2023-05-10T16:33:45;12.30;99.90
9450;DHT22;4763;48.370;10.874;2023-05-10T16:36:32;12.30;99.90
9450;DHT22;4763;48.370;10.874;2023-05-10T16:39:20;12.30;99.90
9450;DHT22;4763;48.370;10.874;2023-05-10T16:42:08;12.30;99.90
9450;DHT22;4763;48.370;10.874;2023-05-10T16:44:55;12.20;99.90
9450;DHT22;4763;48.370;10.874;2023-05-10T16:47:42;12.10;99.90
9450;DHT22;4763;48.370;10.874;2023-05-10T16:50:29;12.10;99.90
9450;DHT22;4763;48.370;10.874;2023-05-10T16:53:17;12.10;99.90
9450;DHT22;4763;48.370;10.874;2023-05-10T16:56:04;12.10;99.90
9450;DHT22;4763;48.370;10.874;2023-05-10T16:58:52;12.10;99.90
9450;DHT22;4763;48.370;10.874;2023-05-10T17:01:39;12.10;99.90
9450;DHT22;4763;48.370;10.874;2023-05-10T17:04:26;12.00;99.90
9450;DHT22;4763;48.370;10.874;2023-05-10T17:07:14;12.00;99.90
9450;DHT22;4763;48.370;10.874;2023-05-10T17:10:01;12.00;99.90
9450;DHT22;4763;48.370;10.874;2023-05-10T17:12:48;12.00;99.90
9450;DHT22;4763;48.370;10.874;2023-05-10T17:15:36;11.90;99.90
9450;DHT22;4763;48.370;10.874;2023-05-10T17:18:23;11.90;99.90
9450;DHT22;4763;48.370;10.874;2023-05-10T17:21:11;11.90;99.90
9450;DHT22;4763;48.370;10.874;2023-05-10T17:23:58;11.90;99.90
9450;DHT22;4763;48.370;10.874;2023-05-10T17:26:45;11.80;99.90
9450;DHT22;4763;48.370;10.874;2023-05-10T17:29:32;11.80;99.90
9450;DHT22;4763;48.370;10.874;2023-05-10T17:32:20;11.80;99.90
9450;DHT22;4763;48.370;10.874;2023-05-10T17:35:08;11.80;99.90
9450;DHT22;4763;48.370;10.874;2023-05-10T17:37:55;11.80;99.90
9450;DHT22;4763;48.370;10.874;2023-05-10T17:40:42;11.80;99.90
9450;DHT22;4763;48.370;10.874;2023-05-10T17:43:30;11.70;99.90
9450;DHT22;4763;48.370;10.874;2023-05-10T17:46:17;11.80;99.90
9450;DHT22;4763;48.370;10.874;2023-05-10T17:49:05;11.80;99.90
9450;DHT22;4763;48.370;10.874;2023-05-10T17:51:52;11.70;99.90
9450;DHT22;4763;48.370;10.874;2023-05-10T17:54:39;11.70;99.90
9450;DHT22;4763;48.370;10.874;2023-05-10T17:57:26;11.70;99.90
9450;DHT22;4763;48.370;10.874;2023-05-10T18:00:14;11.70;99.90